Time;durP1;ratioP1;P1;durP2;ratioP2;P2;SDS_P1;SDS_P2;PMS_P1;PMS_P2;Temp;Humidity;BMP_temperature;BMP_pressure;BME280_temperature;BME280_humidity;BME280_pressure;Samples;Min_cycle;Max_cycle;Signal;HPM_P1;HPM_P2
2022/10/12 00:00:25;;;;;;;13.38;4.90;;;6.50;99.90;;;;;;5096008;28;20088;-59
2022/10/12 00:02:52;;;;;;;10.52;4.78;;;6.50;99.90;;;;;;5096303;28;20055;-60
2022/10/12 00:05:18;;;;;;;6.57;4.20;;;6.50;99.90;;;;;;5095010;28;20059;-60
2022/10/12 00:07:45;;;;;;;8.35;4.32;;;6.50;99.90;;;;;;5113974;28;20040;-59
2022/10/12 00:10:12;;;;;;;6.68;3.90;;;6.50;99.90;;;;;;5096293;28;20063;-59
2022/10/12 00:12:39;;;;;;;5.65;3.42;;;6.50;99.90;;;;;;5095419;28;20047;-59
2022/10/12 00:15:08;;;;;;;6.70;2.97;;;6.50;99.90;;;;;;5113495;28;20051;-59
2022/10/12 00:17:35;;;;;;;6.05;3.28;;;6.40;99.90;;;;;;5112411;28;20444;-59
2022/10/12 00:20:02;;;;;;;5.65;2.97;;;6.40;99.90;;;;;;5112196;28;20059;-59
2022/10/12 00:22:29;;;;;;;4.03;3.00;;;6.40;99.90;;;;;;5113883;28;20050;-60
2022/10/12 00:24:56;;;;;;;6.03;3.35;;;6.30;99.90;;;;;;5095095;28;20051;-59
2022/10/12 00:27:22;;;;;;;5.20;3.20;;;6.40;99.90;;;;;;5113000;28;20048;-59
2022/10/12 00:29:49;;;;;;;8.43;3.58;;;6.30;99.90;;;;;;5094753;28;20063;-60
2022/10/12 00:32:18;;;;;;;4.57;3.20;;;6.30;99.90;;;;;;5094616;28;20125;-60
2022/10/12 00:34:44;;;;;;;7.03;3.35;;;6.30;99.90;;;;;;5113428;28;20047;-59
2022/10/12 00:37:11;;;;;;;6.53;3.60;;;6.30;99.90;;;;;;5095377;28;20100;-59
2022/10/12 00:39:38;;;;;;;4.40;2.85;;;6.40;99.90;;;;;;5112936;28;20105;-59
2022/10/12 00:42:05;;;;;;;8.63;2.75;;;6.40;99.90;;;;;;5095958;28;20060;-60
2022/10/12 00:44:38;;;;;;;3.65;2.50;;;6.40;99.90;;;;;;5113277;28;20552;-60
2022/10/12 00:47:13;;;;;;;4.55;2.30;;;6.30;99.90;;;;;;5094880;28;20051;-59
2022/10/12 00:49:42;;;;;;;4.78;2.40;;;6.30;99.90;;;;;;5095658;28;20427;-59
2022/10/12 00:52:13;;;;;;;4.20;2.72;;;6.30;99.90;;;;;;5095318;28;20047;-59
2022/10/12 00:54:43;;;;;;;4.32;2.75;;;6.30;99.90;;;;;;5112451;28;20051;-60
2022/10/12 00:57:12;;;;;;;5.07;3.08;;;6.30;99.90;;;;;;5112992;28;20125;-59
2022/10/12 00:59:44;;;;;;;5.47;3.58;;;6.30;99.90;;;;;;5094865;28;20058;-60
2022/10/12 01:02:12;;;;;;;6.40;3.55;;;6.20;99.90;;;;;;5113055;28;20491;-59
2022/10/12 01:04:41;;;;;;;6.72;3.25;;;6.20;99.90;;;;;;5095207;28;20113;-60
2022/10/12 01:07:08;;;;;;;7.65;3.40;;;6.20;99.90;;;;;;5113104;28;20104;-60
2022/10/12 01:09:35;;;;;;;6.13;3.42;;;6.20;99.90;;;;;;5112732;28;20384;-60
2022/10/12 01:12:05;;;;;;;7.82;3.65;;;6.20;99.90;;;;;;5113506;28;20089;-58
2022/10/12 01:14:32;;;;;;;6.03;3.13;;;6.20;99.90;;;;;;5094548;28;20039;-59
2022/10/12 01:17:08;;;;;;;6.13;3.40;;;6.20;99.90;;;;;;5113190;28;20044;-59
2022/10/12 01:20:28;;;;;;;6.40;3.33;;;6.20;99.90;;;;;;5113188;28;20046;-60
2022/10/12 01:23:15;;;;;;;7.90;3.58;;;6.20;99.90;;;;;;5023096;28;20055;-60
2022/10/12 01:26:00;;;;;;;5.43;3.28;;;6.20;99.90;;;;;;5113124;28;20097;-58
2022/10/12 01:28:41;;;;;;;5.65;3.33;;;6.20;99.90;;;;;;5094694;28;20056;-60
2022/10/12 01:31:18;;;;;;;11.15;3.60;;;6.20;99.90;;;;;;5094959;28;20445;-59
2022/10/12 01:33:49;;;;;;;9.75;3.25;;;6.20;99.90;;;;;;5113160;28;20544;-59
2022/10/12 01:36:23;;;;;;;6.07;3.30;;;6.20;99.90;;;;;;5112009;28;20100;-60
2022/10/12 01:38:58;;;;;;;8.90;3.63;;;6.20;99.90;;;;;;5094850;28;20040;-59
2022/10/12 01:41:31;;;;;;;9.18;4.03;;;6.20;99.90;;;;;;5113405;28;20430;-60
2022/10/12 01:43:58;;;;;;;8.40;3.30;;;6.10;99.90;;;;;;5094107;28;20048;-60
2022/10/12 01:46:46;;;;;;;7.10;3.90;;;6.10;99.90;;;;;;5108462;28;20052;-60
2022/10/12 01:49:17;;;;;;;7.65;3.40;;;6.10;99.90;;;;;;5074467;28;20047;-60
2022/10/12 01:52:16;;;;;;;6.75;4.00;;;6.10;99.90;;;;;;5092314;28;20392;-60
2022/10/12 01:55:00;;;;;;;8.32;3.70;;;6.10;99.90;;;;;;5074681;28;20139;-59
2022/10/12 01:57:35;;;;;;;9.30;4.55;;;6.10;99.90;;;;;;5091812;28;20113;-60
2022/10/12 02:00:05;;;;;;;9.20;4.30;;;6.10;99.90;;;;;;5103377;28;20052;-60
2022/10/12 02:02:43;;;;;;;8.23;4.55;;;6.10;99.90;;;;;;5113203;28;20491;-60
2022/10/12 02:05:19;;;;;;;9.73;5.70;;;6.20;99.90;;;;;;5112217;28;20060;-60
2022/10/12 02:07:52;;;;;;;10.20;5.05;;;6.20;99.90;;;;;;5112783;28;20096;-61
2022/10/12 02:10:25;;;;;;;10.00;4.63;;;6.20;99.90;;;;;;5115466;28;20105;-59
2022/10/12 02:12:54;;;;;;;8.40;3.88;;;6.30;99.90;;;;;;5115913;28;20081;-59
2022/10/12 02:15:25;;;;;;;8.23;4.20;;;6.30;99.90;;;;;;5116337;28;20085;-60
2022/10/12 02:17:54;;;;;;;11.15;5.10;;;6.30;99.90;;;;;;5097376;28;20122;-60
2022/10/12 02:20:23;;;;;;;8.32;4.90;;;6.40;99.90;;;;;;5098235;28;20491;-59
2022/10/12 02:22:51;;;;;;;7.30;4.22;;;6.40;99.90;;;;;;5098404;28;20104;-59
2022/10/12 02:25:22;;;;;;;10.68;4.78;;;6.40;99.90;;;;;;5097243;28;20074;-59
2022/10/12 02:27:53;;;;;;;10.95;4.82;;;6.40;99.90;;;;;;5116240;28;20047;-59
2022/10/12 02:30:20;;;;;;;9.65;5.32;;;6.50;99.90;;;;;;5115942;28;20495;-59
2022/10/12 02:32:52;;;;;;;11.57;5.05;;;6.50;99.90;;;;;;5097058;28;20456;-59
2022/10/12 02:35:27;;;;;;;7.88;4.75;;;6.50;99.90;;;;;;5097332;28;20472;-59
2022/10/12 02:37:56;;;;;;;7.60;4.40;;;6.60;99.90;;;;;;5115880;28;20414;-60
2022/10/12 02:40:31;;;;;;;11.45;4.95;;;6.60;99.90;;;;;;5115278;28;20063;-59
2022/10/12 02:43:04;;;;;;;7.20;4.53;;;6.60;99.90;;;;;;5097662;28;20491;-59
2022/10/12 02:45:34;;;;;;;6.45;3.55;;;6.70;99.90;;;;;;5097028;28;20134;-59
2022/10/12 02:48:02;;;;;;;9.07;3.70;;;6.70;99.90;;;;;;5115372;28;20051;-60
2022/10/12 02:50:32;;;;;;;10.95;4.38;;;6.70;99.90;;;;;;5115567;28;20761;-60
2022/10/12 02:52:59;;;;;;;7.10;4.10;;;6.70;99.90;;;;;;5096771;28;20510;-60
2022/10/12 02:55:26;;;;;;;8.38;4.38;;;6.70;99.90;;;;;;5115528;28;20491;-60
2022/10/12 02:57:53;;;;;;;7.03;3.70;;;6.70;99.90;;;;;;5115907;28;20055;-60
2022/10/12 03:00:20;;;;;;;9.38;4.50;;;6.70;99.90;;;;;;5114939;28;20044;-59
2022/10/12 03:02:47;;;;;;;12.80;4.18;;;6.70;99.90;;;;;;5115587;28;20043;-59
2022/10/12 03:05:14;;;;;;;6.68;4.13;;;6.70;99.90;;;;;;5115341;28;20123;-59
2022/10/12 03:07:42;;;;;;;7.30;3.42;;;6.60;99.90;;;;;;5096346;28;20062;-59
2022/10/12 03:10:09;;;;;;;6.55;3.55;;;6.60;99.90;;;;;;5115203;28;20407;-59
2022/10/12 03:12:36;;;;;;;6.47;4.22;;;6.60;99.90;;;;;;5115482;28;20123;-60
2022/10/12 03:15:04;;;;;;;7.78;3.53;;;6.60;99.90;;;;;;5114557;28;20051;-60
2022/10/12 03:17:31;;;;;;;5.00;3.60;;;6.60;99.90;;;;;;5115459;28;20044;-58
2022/10/12 03:19:57;;;;;;;5.10;3.28;;;6.50;99.90;;;;;;5114733;28;20051;-59
2022/10/12 03:22:24;;;;;;;6.70;3.60;;;6.50;99.90;;;;;;5095775;28;20052;-59
2022/10/12 03:24:52;;;;;;;7.53;3.53;;;6.50;99.90;;;;;;5115051;28;20043;-59
2022/10/12 03:27:19;;;;;;;6.15;4.00;;;6.50;99.90;;;;;;5114794;28;20100;-60
2022/10/12 03:29:46;;;;;;;8.40;3.80;;;6.50;99.90;;;;;;5114379;28;20384;-59
2022/10/12 03:32:14;;;;;;;13.65;4.70;;;6.50;99.90;;;;;;5114977;28;20047;-59
2022/10/12 03:34:41;;;;;;;5.70;3.13;;;6.50;99.90;;;;;;5096554;28;20510;-60
2022/10/12 03:37:08;;;;;;;9.15;4.00;;;6.50;99.90;;;;;;5095832;28;20058;-58
2022/10/12 03:39:35;;;;;;;7.57;3.60;;;6.50;99.90;;;;;;5096788;28;20384;-58
2022/10/12 03:42:04;;;;;;;6.25;3.97;;;6.50;99.90;;;;;;5113550;28;20051;-59
2022/10/12 03:44:30;;;;;;;8.43;4.25;;;6.50;99.90;;;;;;5084038;28;20140;-58
2022/10/12 03:46:57;;;;;;;8.50;4.47;;;6.60;99.90;;;;;;5097493;28;20093;-60
2022/10/12 03:49:24;;;;;;;9.85;4.85;;;6.60;99.90;;;;;;5084972;28;20055;-58
2022/10/12 03:51:51;;;;;;;8.15;4.53;;;6.60;99.90;;;;;;5107594;28;20391;-59
2022/10/12 03:54:18;;;;;;;7.47;4.60;;;6.60;99.90;;;;;;5106793;28;20453;-59
2022/10/12 03:56:45;;;;;;;8.77;4.20;;;6.60;99.90;;;;;;5104592;28;20056;-59
2022/10/12 03:59:13;;;;;;;9.80;4.57;;;6.60;99.90;;;;;;5109061;28;20051;-60
2022/10/12 04:01:40;;;;;;;9.73;4.70;;;6.60;99.90;;;;;;5106442;28;20048;-60
2022/10/12 04:04:07;;;;;;;9.98;4.68;;;6.60;99.90;;;;;;5088533;28;20059;-60
2022/10/12 04:06:34;;;;;;;13.48;5.00;;;6.70;99.90;;;;;;5089514;28;20056;-60
2022/10/12 04:09:01;;;;;;;9.65;4.55;;;6.70;99.90;;;;;;5106675;28;20040;-59
2022/10/12 04:11:27;;;;;;;9.40;5.15;;;6.70;99.90;;;;;;5107316;28;20113;-59
2022/10/12 04:13:54;;;;;;;9.63;4.35;;;6.70;99.90;;;;;;5090698;28;20063;-59
2022/10/12 04:16:22;;;;;;;8.48;4.65;;;6.70;99.90;;;;;;5106481;28;20039;-60
2022/10/12 04:18:49;;;;;;;10.07;4.78;;;6.70;99.90;;;;;;5105922;28;20109;-58
2022/10/12 04:21:17;;;;;;;11.35;4.60;;;6.70;99.90;;;;;;5089037;28;20052;-59
2022/10/12 04:23:44;;;;;;;9.98;5.57;;;6.70;99.90;;;;;;5087298;28;20056;-59
2022/10/12 04:26:11;;;;;;;9.55;4.78;;;6.70;99.90;;;;;;5105143;28;20044;-60
2022/10/12 04:28:38;;;;;;;7.18;4.55;;;6.70;99.90;;;;;;5110620;28;20036;-59
2022/10/12 04:31:05;;;;;;;10.68;4.75;;;6.80;99.90;;;;;;5107727;28;20060;-60
2022/10/12 04:33:33;;;;;;;11.25;4.55;;;6.80;99.90;;;;;;5102940;28;20407;-60
2022/10/12 04:36:00;;;;;;;8.38;4.80;;;7.10;99.90;;;;;;5086672;28;20163;-60
2022/10/12 04:38:27;;;;;;;8.07;4.40;;;7.10;99.90;;;;;;5100664;28;23009;-59
2022/10/12 04:40:54;;;;;;;8.45;4.75;;;7.10;99.90;;;;;;5091531;28;20052;-59
2022/10/12 04:43:20;;;;;;;8.38;4.60;;;7.00;99.90;;;;;;5092555;28;20421;-60
2022/10/12 04:45:54;;;;;;;8.25;4.32;;;7.00;99.90;;;;;;5090201;28;20082;-60
2022/10/12 04:48:21;;;;;;;12.38;4.60;;;7.00;99.90;;;;;;5087519;28;20097;-60
2022/10/12 04:50:49;;;;;;;12.07;5.38;;;6.90;99.90;;;;;;5104156;28;20081;-59
2022/10/12 04:53:16;;;;;;;10.90;4.60;;;6.90;99.90;;;;;;5072664;28;20056;-60
2022/10/12 04:55:43;;;;;;;13.60;4.15;;;6.90;99.90;;;;;;5091846;28;20530;-59
2022/10/12 04:58:10;;;;;;;10.43;4.32;;;6.90;99.90;;;;;;5090557;28;20052;-60
2022/10/12 05:00:37;;;;;;;14.50;5.05;;;6.80;99.90;;;;;;5091294;28;20044;-58
2022/10/12 05:03:05;;;;;;;9.20;4.85;;;7.00;99.90;;;;;;5078123;28;20133;-59
2022/10/12 05:05:33;;;;;;;11.15;5.15;;;6.80;99.90;;;;;;5072827;28;20060;-60
2022/10/12 05:08:01;;;;;;;9.82;4.32;;;6.80;99.90;;;;;;5094940;28;20466;-60
2022/10/12 05:10:28;;;;;;;16.58;4.82;;;6.80;99.90;;;;;;5091051;28;20200;-60
2022/10/12 05:12:55;;;;;;;10.90;5.10;;;6.80;99.90;;;;;;5090573;28;20541;-59
2022/10/12 05:15:22;;;;;;;9.35;4.20;;;6.80;99.90;;;;;;5104202;28;20047;-59
2022/10/12 05:17:49;;;;;;;12.65;4.82;;;6.70;99.90;;;;;;5083997;28;20124;-60
2022/10/12 05:20:16;;;;;;;7.43;4.43;;;6.70;99.90;;;;;;5105699;28;20527;-60
2022/10/12 05:22:42;;;;;;;15.93;5.25;;;6.70;99.90;;;;;;5074689;28;20052;-59
2022/10/12 05:25:11;;;;;;;7.72;4.43;;;6.70;99.90;;;;;;5091183;28;20093;-60
2022/10/12 05:27:38;;;;;;;9.98;4.78;;;6.60;99.90;;;;;;5091761;28;20052;-59
2022/10/12 05:30:06;;;;;;;14.60;5.05;;;6.60;99.90;;;;;;5090991;28;20079;-59
2022/10/12 05:32:33;;;;;;;11.40;4.85;;;6.60;99.90;;;;;;5091963;28;20449;-61
2022/10/12 05:34:59;;;;;;;12.88;5.45;;;6.50;99.90;;;;;;5090252;28;20095;-60
2022/10/12 05:37:26;;;;;;;13.45;5.63;;;6.50;99.90;;;;;;5078460;28;20064;-59
2022/10/12 05:39:53;;;;;;;11.43;5.13;;;6.50;99.90;;;;;;5091266;28;20055;-59
2022/10/12 05:42:21;;;;;;;16.25;5.25;;;6.50;99.90;;;;;;5072542;28;20064;-60
2022/10/12 05:44:48;;;;;;;12.23;5.68;;;6.50;99.90;;;;;;5094805;28;20044;-60
2022/10/12 05:47:15;;;;;;;12.82;5.85;;;6.50;99.90;;;;;;5105668;28;20039;-60
2022/10/12 05:49:42;;;;;;;12.93;5.13;;;6.50;99.90;;;;;;5089625;28;20093;-59
2022/10/12 05:52:09;;;;;;;20.92;6.80;;;6.40;99.90;;;;;;5089568;28;20052;-59
2022/10/12 05:54:36;;;;;;;12.50;6.30;;;6.40;99.90;;;;;;5107709;28;20055;-59
2022/10/12 05:57:03;;;;;;;14.68;6.40;;;6.40;99.90;;;;;;5109609;28;20043;-59
2022/10/12 05:59:31;;;;;;;13.77;6.00;;;6.40;99.90;;;;;;5092961;28;20043;-59
2022/10/12 06:01:58;;;;;;;11.68;6.80;;;6.40;99.90;;;;;;5090300;28;20402;-59
2022/10/12 06:04:25;;;;;;;14.15;6.65;;;6.40;99.90;;;;;;5088000;28;20484;-61
2022/10/12 06:06:51;;;;;;;12.27;6.45;;;6.40;99.90;;;;;;5112502;28;20054;-60
2022/10/12 06:09:19;;;;;;;16.85;6.70;;;6.40;99.90;;;;;;5108350;28;20429;-60
2022/10/12 06:11:46;;;;;;;13.25;6.90;;;6.30;99.90;;;;;;5107829;28;20483;-60
2022/10/12 06:14:13;;;;;;;17.90;6.82;;;6.30;99.90;;;;;;5092133;28;20051;-59
2022/10/12 06:16:41;;;;;;;15.55;7.57;;;6.30;99.90;;;;;;5091450;28;20055;-59
2022/10/12 06:19:11;;;;;;;13.75;7.28;;;6.30;99.90;;;;;;5105518;28;20036;-59
2022/10/12 06:21:38;;;;;;;16.30;7.30;;;6.30;99.90;;;;;;5107435;28;20139;-59
2022/10/12 06:24:05;;;;;;;15.60;7.13;;;6.30;99.90;;;;;;5105936;28;20047;-58
2022/10/12 06:26:32;;;;;;;17.23;7.30;;;6.30;99.90;;;;;;5090336;28;20108;-59
2022/10/12 06:28:59;;;;;;;18.20;6.65;;;6.30;99.90;;;;;;5113531;28;20048;-59
2022/10/12 06:31:26;;;;;;;16.05;6.80;;;6.30;99.90;;;;;;5087376;28;20052;-60
2022/10/12 06:33:54;;;;;;;17.65;7.18;;;6.30;99.90;;;;;;5111614;28;20067;-59
2022/10/12 06:36:22;;;;;;;12.73;6.82;;;6.40;99.90;;;;;;5115030;27;20555;-61
2022/10/12 06:38:49;;;;;;;15.00;7.63;;;6.40;99.90;;;;;;5100514;28;20054;-60
2022/10/12 06:41:16;;;;;;;18.45;7.32;;;6.50;99.90;;;;;;5118251;27;20449;-60
2022/10/12 06:43:43;;;;;;;9.95;6.53;;;6.60;99.90;;;;;;5097439;28;20376;-60
2022/10/12 06:46:10;;;;;;;15.32;6.72;;;6.60;99.90;;;;;;5098733;28;20044;-60
2022/10/12 06:48:37;;;;;;;16.00;7.22;;;6.70;99.90;;;;;;5097753;28;20105;-59
2022/10/12 06:51:06;;;;;;;15.25;6.80;;;6.80;99.90;;;;;;5096361;28;20494;-60
2022/10/12 06:53:33;;;;;;;13.25;6.90;;;6.90;99.90;;;;;;5095583;28;20113;-59
2022/10/12 06:56:05;;;;;;;13.43;6.45;;;7.00;99.90;;;;;;5095252;28;20138;-59
2022/10/12 06:58:32;;;;;;;19.15;7.20;;;7.10;99.90;;;;;;5104581;28;20050;-60
2022/10/12 07:01:01;;;;;;;9.77;6.32;;;7.20;99.90;;;;;;5114321;28;20039;-60
2022/10/12 07:03:28;;;;;;;19.65;6.07;;;7.40;99.90;;;;;;5098282;28;20052;-60
2022/10/12 07:05:55;;;;;;;9.85;6.07;;;7.60;99.90;;;;;;5122376;27;20470;-60
2022/10/12 07:08:23;;;;;;;9.48;4.88;;;8.10;99.90;;;;;;5096611;28;20059;-59
2022/10/12 07:10:50;;;;;;;11.38;5.28;;;9.10;99.90;;;;;;5107700;28;20509;-60
2022/10/12 07:13:17;;;;;;;8.52;5.43;;;10.00;99.90;;;;;;5110639;28;20418;-60
2022/10/12 07:15:49;;;;;;;15.48;4.90;;;10.80;99.90;;;;;;5097154;28;20487;-59
2022/10/12 07:18:16;;;;;;;7.50;5.10;;;11.60;99.90;;;;;;5115098;28;20138;-59
2022/10/12 07:20:43;;;;;;;11.30;5.10;;;12.40;99.90;;;;;;5114275;28;20115;-60
2022/10/12 07:23:10;;;;;;;12.68;4.90;;;13.10;99.90;;;;;;5115206;28;20047;-60
2022/10/12 07:25:38;;;;;;;8.35;5.07;;;13.50;99.90;;;;;;5114823;28;20105;-60
2022/10/12 07:28:05;;;;;;;9.40;4.40;;;14.20;99.90;;;;;;5114317;28;20043;-60
2022/10/12 07:30:32;;;;;;;9.85;3.72;;;14.60;99.90;;;;;;5114617;28;20499;-60
2022/10/12 07:32:59;;;;;;;14.52;5.15;;;15.20;99.90;;;;;;5096584;28;20556;-60
2022/10/12 07:35:26;;;;;;;10.13;4.55;;;15.80;99.90;;;;;;5114245;28;20051;-60
2022/10/12 07:37:53;;;;;;;11.88;4.45;;;15.90;99.90;;;;;;5114748;28;20047;-60
2022/10/12 07:40:20;;;;;;;9.13;4.47;;;15.80;99.90;;;;;;5114198;28;20577;-59
2022/10/12 07:42:48;;;;;;;10.93;4.03;;;16.30;99.90;;;;;;5113976;28;20051;-60
2022/10/12 07:45:15;;;;;;;8.60;4.22;;;16.80;99.90;;;;;;5114558;28;20047;-60
2022/10/12 07:47:42;;;;;;;11.88;3.65;;;17.20;99.90;;;;;;5095891;28;20051;-60
2022/10/12 07:50:09;;;;;;;9.85;3.85;;;17.90;99.90;;;;;;5113697;28;20056;-60
2022/10/12 07:52:36;;;;;;;14.15;3.97;;;18.20;99.90;;;;;;5114650;28;20414;-60
2022/10/12 07:55:03;;;;;;;7.50;3.67;;;18.90;99.90;;;;;;5113980;28;20048;-61
2022/10/12 07:57:30;;;;;;;7.90;3.45;;;19.30;98.50;;;;;;5095902;28;20103;-60
2022/10/12 07:59:58;;;;;;;8.43;3.67;;;19.70;98.10;;;;;;5114061;28;20047;-61
2022/10/12 08:02:25;;;;;;;10.25;3.60;;;19.90;97.10;;;;;;5095833;28;20055;-61
2022/10/12 08:04:52;;;;;;;9.65;3.65;;;20.00;96.40;;;;;;5116033;27;20497;-61
2022/10/12 08:07:19;;;;;;;7.93;3.30;;;20.40;96.20;;;;;;5111430;27;20052;-60
2022/10/12 08:09:48;;;;;;;8.63;3.70;;;20.50;95.20;;;;;;5110115;28;20376;-60
2022/10/12 08:12:15;;;;;;;8.05;3.65;;;20.80;93.90;;;;;;5095734;28;20491;-60
2022/10/12 08:14:42;;;;;;;9.45;3.92;;;21.30;94.30;;;;;;5114183;28;20134;-61
2022/10/12 08:17:10;;;;;;;7.80;3.10;;;21.30;93.20;;;;;;5113654;28;20096;-61
2022/10/12 08:19:37;;;;;;;7.28;2.85;;;21.60;92.20;;;;;;5114031;28;20072;-61
2022/10/12 08:22:04;;;;;;;8.10;3.38;;;21.90;91.60;;;;;;5113485;28;20407;-61
2022/10/12 08:24:31;;;;;;;6.65;3.15;;;22.30;91.00;;;;;;5113162;28;20496;-61
2022/10/12 08:26:58;;;;;;;6.32;3.17;;;22.90;90.40;;;;;;5095631;28;20131;-61
2022/10/12 08:29:25;;;;;;;10.50;3.30;;;23.50;89.30;;;;;;5113681;28;20392;-61
2022/10/12 08:31:53;;;;;;;6.63;2.97;;;22.90;87.30;;;;;;5097682;28;20044;-61
2022/10/12 08:34:23;;;;;;;7.55;3.30;;;22.60;86.30;;;;;;5113682;28;20068;-61
2022/10/12 08:36:51;;;;;;;10.80;3.65;;;22.10;87.30;;;;;;5095331;28;20052;-60
2022/10/12 08:39:18;;;;;;;6.93;3.10;;;21.30;89.80;;;;;;5097121;28;20134;-60
2022/10/12 08:41:52;;;;;;;11.23;3.72;;;20.10;90.50;;;;;;5125279;27;20055;-60
2022/10/12 08:45:04;;;;;;;12.57;4.25;;;19.50;91.20;;;;;;5106154;28;20055;-61
2022/10/12 08:47:37;;;;;;;9.30;3.97;;;18.10;92.50;;;;;;5065053;28;20491;-60
2022/10/12 08:50:09;;;;;;;10.35;4.40;;;17.30;94.80;;;;;;5095030;28;20487;-61
2022/10/12 08:52:41;;;;;;;9.52;4.30;;;16.70;96.00;;;;;;5094940;28;20142;-60
2022/10/12 08:55:21;;;;;;;11.07;4.20;;;16.30;97.60;;;;;;5113096;28;20051;-60
2022/10/12 08:57:48;;;;;;;8.88;4.30;;;16.00;98.30;;;;;;5095429;28;20054;-60
2022/10/12 09:00:16;;;;;;;13.30;5.13;;;15.70;99.60;;;;;;5094294;28;20059;-61
2022/10/12 09:02:56;;;;;;;12.05;4.70;;;15.40;99.90;;;;;;5113248;28;20388;-60
2022/10/12 09:05:31;;;;;;;11.63;4.57;;;15.70;99.90;;;;;;5112940;28;20100;-60
2022/10/12 09:08:02;;;;;;;8.70;4.10;;;16.10;99.90;;;;;;5112527;28;20584;-61
2022/10/12 09:10:40;;;;;;;11.77;5.50;;;16.90;99.10;;;;;;5112857;28;20449;-60
2022/10/12 09:13:16;;;;;;;10.23;5.22;;;17.80;98.10;;;;;;5112639;28;20148;-60
2022/10/12 09:15:49;;;;;;;11.13;5.13;;;18.30;97.10;;;;;;5113279;28;20040;-60
2022/10/12 09:18:20;;;;;;;10.85;4.80;;;18.30;96.90;;;;;;5095005;28;20139;-61
2022/10/12 09:20:50;;;;;;;10.75;5.35;;;19.20;95.50;;;;;;5098763;28;20096;-61
2022/10/12 09:23:27;;;;;;;9.68;5.20;;;20.20;94.60;;;;;;5117189;28;20146;-61
2022/10/12 09:26:02;;;;;;;10.90;4.45;;;21.10;92.00;;;;;;5098344;28;20051;-62
2022/10/12 09:28:34;;;;;;;13.82;4.97;;;22.20;90.90;;;;;;5098708;28;20055;-60
2022/10/12 09:31:17;;;;;;;9.88;4.40;;;22.70;89.00;;;;;;5105024;28;20460;-61
2022/10/12 09:33:49;;;;;;;7.38;3.45;;;23.30;83.30;;;;;;5109396;28;20535;-61
2022/10/12 09:36:21;;;;;;;9.27;3.75;;;23.80;81.10;;;;;;5095117;28;20096;-60
2022/10/12 09:38:49;;;;;;;8.25;3.75;;;24.60;79.80;;;;;;5078438;28;20055;-60
2022/10/12 09:41:20;;;;;;;7.70;3.10;;;25.10;78.30;;;;;;5107806;28;20582;-59
2022/10/12 09:43:49;;;;;;;10.10;3.42;;;25.20;74.50;;;;;;5116686;28;20114;-60
2022/10/12 09:46:19;;;;;;;7.05;3.25;;;25.00;75.00;;;;;;5097946;28;20056;-60
2022/10/12 09:49:00;;;;;;;8.07;2.97;;;25.30;73.70;;;;;;5098001;28;20048;-60
2022/10/12 09:51:29;;;;;;;9.45;3.25;;;25.30;69.50;;;;;;5098055;28;20047;-60
2022/10/12 09:54:02;;;;;;;;;;;25.50;71.50;;;;;;5097985;28;20514;-61
2022/10/12 09:56:35;;;;;;;7.05;3.13;;;25.60;69.40;;;;;;5115490;28;19919;-60
2022/10/12 09:59:05;;;;;;;6.82;3.72;;;26.10;71.40;;;;;;5098159;28;20055;-60
2022/10/12 10:01:33;;;;;;;6.60;2.70;;;26.40;69.80;;;;;;5115433;28;20048;-61
2022/10/12 10:04:10;;;;;;;7.20;2.88;;;26.30;68.60;;;;;;5097302;28;20600;-61
2022/10/12 10:06:40;;;;;;;11.13;3.53;;;26.60;66.10;;;;;;5115825;28;20056;-59
2022/10/12 10:09:27;;;;;;;7.20;2.25;;;26.50;67.90;;;;;;5115242;28;20062;-59
2022/10/12 10:11:54;;;;;;;7.57;2.97;;;26.70;64.70;;;;;;5097570;28;20116;-60
2022/10/12 10:14:21;;;;;;;7.53;3.25;;;26.70;67.10;;;;;;5097601;28;20048;-61
2022/10/12 10:16:49;;;;;;;7.68;2.80;;;27.20;66.80;;;;;;5096887;28;20105;-60
2022/10/12 10:19:18;;;;;;;8.20;3.00;;;26.80;65.90;;;;;;5115931;28;20106;-59
2022/10/12 10:21:47;;;;;;;12.02;4.00;;;26.40;66.10;;;;;;5096951;28;20483;-61
2022/10/12 10:24:25;;;;;;;7.85;2.78;;;26.10;66.30;;;;;;5096155;28;20051;-62
2022/10/12 10:26:54;;;;;;;5.90;2.33;;;25.40;65.90;;;;;;5115985;28;20487;-61
2022/10/12 10:29:39;;;;;;;8.73;2.50;;;25.40;68.20;;;;;;5115431;28;20055;-61
2022/10/12 10:32:11;;;;;;;7.38;2.85;;;25.50;66.60;;;;;;5076056;28;20044;-60
2022/10/12 10:35:02;;;;;;;5.85;2.38;;;26.10;67.80;;;;;;5094915;28;20193;-61
2022/10/12 10:37:53;;;;;;;6.00;2.30;;;26.80;65.70;;;;;;5094760;28;20055;-61
2022/10/12 10:40:39;;;;;;;9.45;2.90;;;27.40;64.90;;;;;;5094532;28;20129;-60
2022/10/12 10:43:28;;;;;;;13.30;3.42;;;27.90;65.20;;;;;;5094565;28;20055;-60
2022/10/12 10:46:15;;;;;;;10.43;3.22;;;27.70;64.90;;;;;;5093084;28;20153;-60
2022/10/12 10:48:52;;;;;;;8.98;2.53;;;28.00;64.40;;;;;;5095065;28;20052;-61
2022/10/12 10:51:19;;;;;;;6.03;2.53;;;28.30;63.50;;;;;;5075957;28;20051;-59
2022/10/12 10:53:49;;;;;;;10.90;2.80;;;28.20;62.80;;;;;;5076820;28;20491;-60
2022/10/12 10:56:21;;;;;;;8.48;2.70;;;28.40;63.10;;;;;;5092862;28;20388;-60
2022/10/12 10:58:51;;;;;;;7.78;3.15;;;28.20;63.30;;;;;;5093099;28;20487;-61
2022/10/12 11:01:22;;;;;;;10.40;2.88;;;28.30;63.70;;;;;;5093070;28;20051;-61
2022/10/12 11:03:55;;;;;;;6.85;2.50;;;28.30;62.80;;;;;;5073224;28;20056;-61
2022/10/12 11:06:31;;;;;;;7.60;2.45;;;28.40;61.70;;;;;;5076316;28;20134;-62
2022/10/12 11:09:05;;;;;;;6.82;2.40;;;28.50;62.50;;;;;;5095192;28;20048;-60
2022/10/12 11:11:36;;;;;;;7.25;2.80;;;28.50;61.50;;;;;;5076723;28;20044;-62
2022/10/12 11:14:11;;;;;;;7.63;2.67;;;28.40;62.00;;;;;;5076306;28;20419;-61
2022/10/12 11:16:41;;;;;;;8.15;2.35;;;27.90;61.70;;;;;;5094975;28;20044;-62
2022/10/12 11:19:23;;;;;;;6.30;2.33;;;28.00;61.10;;;;;;5076970;28;20055;-62
2022/10/12 11:21:54;;;;;;;8.80;2.42;;;27.50;61.40;;;;;;5076177;28;20056;-61
2022/10/12 11:24:28;;;;;;;9.40;2.63;;;27.50;61.80;;;;;;5094508;28;20487;-60
2022/10/12 11:27:02;;;;;;;5.85;2.10;;;27.60;61.90;;;;;;5094673;28;20127;-60
2022/10/12 11:29:29;;;;;;;7.38;2.13;;;27.40;61.50;;;;;;5095405;28;20116;-61
2022/10/12 11:32:02;;;;;;;7.72;2.60;;;28.00;62.20;;;;;;5096815;28;20066;-61
2022/10/12 11:34:34;;;;;;;5.57;2.03;;;28.30;61.70;;;;;;5096437;28;20091;-61
2022/10/12 11:37:04;;;;;;;5.47;2.40;;;28.40;60.70;;;;;;5107243;28;20066;-61
2022/10/12 11:39:37;;;;;;;9.55;2.63;;;27.60;61.70;;;;;;5114499;28;20457;-61
2022/10/12 11:42:07;;;;;;;10.75;3.05;;;28.20;59.70;;;;;;5113961;28;20104;-60
2022/10/12 11:44:40;;;;;;;8.00;2.28;;;28.60;60.70;;;;;;5096684;28;20411;-60
2022/10/12 11:47:16;;;;;;;7.88;2.10;;;28.90;59.30;;;;;;5096310;28;20059;-61
2022/10/12 11:49:49;;;;;;;6.32;2.35;;;28.80;59.90;;;;;;5095784;28;20092;-61
2022/10/12 11:52:17;;;;;;;7.07;2.42;;;28.40;59.80;;;;;;5109696;28;20376;-61
2022/10/12 11:54:52;;;;;;;9.13;2.17;;;28.50;59.70;;;;;;5095564;28;20051;-61
2022/10/12 11:57:25;;;;;;;8.40;2.30;;;28.20;58.90;;;;;;5096332;28;20491;-61
2022/10/12 11:59:56;;;;;;;7.68;1.95;;;28.40;59.30;;;;;;5096143;28;20495;-61
2022/10/12 12:02:27;;;;;;;7.10;2.47;;;28.70;59.30;;;;;;5095235;28;20104;-61
2022/10/12 12:04:54;;;;;;;6.40;1.70;;;29.10;58.70;;;;;;5114214;28;20076;-61
2022/10/12 12:07:46;;;;;;;7.78;2.15;;;29.40;58.30;;;;;;5095662;28;20054;-61
2022/10/12 12:10:50;;;;;;;6.68;1.70;;;29.30;57.10;;;;;;5113858;28;20051;-61
2022/10/12 12:13:21;;;;;;;10.07;2.00;;;28.90;56.30;;;;;;5113642;28;20101;-61
2022/10/12 12:16:33;;;;;;;7.97;2.10;;;29.40;58.60;;;;;;5113303;28;20492;-62
2022/10/12 12:19:38;;;;;;;3.92;1.30;;;29.30;55.50;;;;;;5096071;28;20116;-61
2022/10/12 12:22:36;;;;;;;6.18;2.05;;;29.20;56.00;;;;;;5099059;28;20044;-61
2022/10/12 12:25:30;;;;;;;8.75;2.13;;;29.10;56.50;;;;;;5113304;28;20052;-60
2022/10/12 12:28:05;;;;;;;5.22;1.60;;;29.40;54.80;;;;;;5095109;28;20130;-60
2022/10/12 12:30:35;;;;;;;5.18;1.73;;;29.00;56.00;;;;;;5094970;28;20059;-60
2022/10/12 12:33:06;;;;;;;5.38;1.80;;;29.10;56.10;;;;;;5113698;28;20066;-61
2022/10/12 12:35:38;;;;;;;6.43;2.00;;;28.90;56.20;;;;;;5095124;28;20113;-62
2022/10/12 12:38:25;;;;;;;4.90;1.73;;;29.10;56.10;;;;;;5095212;28;20087;-60
2022/10/12 12:41:02;;;;;;;5.20;1.67;;;28.70;55.70;;;;;;5113383;28;20047;-60
2022/10/12 12:43:58;;;;;;;4.15;1.60;;;28.40;56.00;;;;;;5113103;28;20047;-60
2022/10/12 12:47:08;;;;;;;6.45;1.80;;;28.40;55.40;;;;;;5092875;28;20131;-59
2022/10/12 12:49:46;;;;;;;6.28;2.08;;;28.60;55.20;;;;;;5112301;28;20127;-61
2022/10/12 12:52:18;;;;;;;6.60;2.33;;;28.90;55.20;;;;;;5113075;28;20093;-62
2022/10/12 12:55:14;;;;;;;6.78;1.65;;;29.00;55.30;;;;;;5113364;28;20097;-60
2022/10/12 12:58:01;;;;;;;7.88;2.25;;;28.80;55.50;;;;;;5089573;28;20055;-60
2022/10/12 13:00:34;;;;;;;5.85;2.40;;;28.10;55.30;;;;;;5113361;28;20470;-60
2022/10/12 13:03:33;;;;;;;5.72;1.88;;;28.00;55.90;;;;;;5112932;28;20134;-61
2022/10/12 13:06:37;;;;;;;3.83;1.45;;;27.90;56.00;;;;;;5103811;28;20051;-61
2022/10/12 13:09:40;;;;;;;5.28;1.90;;;27.80;54.90;;;;;;5095127;28;20052;-61
2022/10/12 13:12:22;;;;;;;6.25;1.60;;;27.80;55.10;;;;;;5112603;28;20498;-60